MSC Lirica — HOPW — position and weather

sailwx.info

Track history (hours):
 
Tides and Currents Weather Stations Pressure Air Temp Water Temp Dewpoint Dewpoint Depression Visibility Wind Speed Wind Dir Waves Ship Positions

MSC Lirica

Operator: Mediterranean Shipping Company

Last reported at 2018-May-26 00:20 UTC. Time now 2018-May-26 00:40 UTC.
Position N 43°29' E 014°22'.

Length 275 m; draft 6.8 m.

Type: Ship. MMSI: 356042000.

Date/timePositionNaut miles runAvg speedWind from/ knotsBaromVisibWave heightAir tempDewpointWater temp
2018-May-26 00:20N 43°29' E 014°22'820.3
2018-May-25 23:57N 43°35' E 014°15'1020.4
2018-May-25 23:27N 43°42' E 014°05'1220.5
2018-May-25 22:51N 43°51' E 013°54'2220.5
2018-May-25 21:47N 44°04' E 013°29'720.5
2018-May-25 21:28N 44°08' E 013°22'919.9
2018-May-25 21:00N 44°14' E 013°13'1020.5
2018-May-25 20:30N 44°24' E 013°08'1020.8
2018-May-25 20:01N 44°33' E 013°03'1020.1
2018-May-25 19:30N 44°43' E 012°58'1020.1
2018-May-25 18:59N 44°52' E 012°52'1020.0
2018-May-25 18:31N 45°01' E 012°46'1019.5
2018-May-25 18:00N 45°09' E 012°37'918.7
2018-May-25 17:30N 45°17' E 012°30'817.3
2018-May-25 17:00N 45°25' E 012°27'4 7.3
2018-May-25 16:30N 45°25' E 012°22'2 4.6
2018-May-25 16:01N 45°26' E 012°18'0 0.4
2018-May-25 15:29N 45°26' E 012°19'0 0.0
2018-May-25 14:59N 45°26' E 012°19'0 0.0
2018-May-25 14:29N 45°26' E 012°19'0 0.0
2018-May-25 13:58N 45°26' E 012°19'0 0.0
2018-May-25 13:28N 45°26' E 012°19'0 0.0
2018-May-25 12:58N 45°26' E 012°19'0 0.0
2018-May-25 12:28N 45°26' E 012°19'0 0.0
2018-May-25 12:00N 45°26' E 012°19'0 0.0
2018-May-25 11:30N 45°26' E 012°19'0 0.0
2018-May-25 11:00N 45°26' E 012°19'0 0.0
2018-May-25 10:30N 45°26' E 012°19'0 0.0
2018-May-25 10:00N 45°26' E 012°19'0 0.0
2018-May-25 09:29N 45°26' E 012°19'0 0.0
2018-May-25 08:59N 45°26' E 012°19'0 0.0
2018-May-25 08:29N 45°26' E 012°19'0 0.0
2018-May-25 07:59N 45°26' E 012°19'0 0.0
2018-May-25 07:29N 45°26' E 012°19'0 0.0
2018-May-25 06:58N 45°26' E 012°19'0 0.0
2018-May-25 06:28N 45°26' E 012°19'0 0.0
2018-May-25 05:58N 45°26' E 012°19'0 0.8
2018-May-25 05:30N 45°26' E 012°19'2 5.0
2018-May-25 05:00N 45°25' E 012°22'3 6.7
2018-May-25 04:31N 45°25' E 012°27'611.4
2018-May-25 04:00N 45°20' E 012°31'715.0
2018-May-25 03:30N 45°14' E 012°38'917.8
2018-May-25 03:00N 45°09' E 012°48'917.8
2018-May-25 02:30N 45°04' E 012°59'918.4
2018-May-25 01:59N 44°60' E 013°10'918.3
2018-May-25 01:29N 44°55' E 013°22'918.3
2018-May-25 01:00N 44°48' E 013°29'918.7
2018-May-25 00:30N 44°40' E 013°36'918.2
2018-May-25 00:00N 44°32' E 013°43'918.1
2018-May-24 23:30N 44°25' E 013°51'2618.3
2018-May-24 22:05N 44°03' E 014°11'218.8
2018-May-24 22:00N 44°02' E 014°12'918.8
2018-May-24 21:30N 43°54' E 014°19'  
2018-May-21 20:32N 37°05' E 024°58'114.5
2018-May-21 20:30N 37°06' E 024°58'714.6
2018-May-21 20:00N 37°12' E 025°01'914.6
2018-May-21 19:24N 37°20' E 025°06'614.3
2018-May-21 19:00N 37°25' E 025°09'713.5
2018-May-21 18:30N 37°27' E 025°18'2 2.1
2018-May-21 17:45N 37°27' E 025°19'0 0.0
2018-May-21 17:24N 37°27' E 025°19'0 0.0
2018-May-21 16:48N 37°27' E 025°19'0 0.0
2018-May-21 11:31N 37°27' E 025°19'0 0.0
2018-May-21 11:28N 37°27' E 025°19'0 0.0
2018-May-21 06:41N 37°27' E 025°19'0 0.0
2018-May-21 06:28N 37°27' E 025°19'0 0.0
2018-May-21 05:55N 37°27' E 025°19'0 0.0
2018-May-21 05:25N 37°27' E 025°19'0 0.0
2018-May-21 04:46N 37°27' E 025°19'0 0.0
2018-May-21 04:30N 37°27' E 025°19'0 0.6
2018-May-21 04:00N 37°28' E 025°19'1 1.7
2018-May-21 03:27N 37°28' E 025°18'613.8
2018-May-21 02:59N 37°26' E 025°10'1017.1
2018-May-21 02:25N 37°19' E 025°02'717.3
2018-May-21 02:00N 37°15' E 024°55'  
2018-May-18 20:17N 44°23' E 013°07'620.3
2018-May-18 20:00N 44°28' E 013°04'1020.0
2018-May-18 19:30N 44°37' E 013°00'1020.0
2018-May-18 19:00N 44°46' E 012°55'1020.0
2018-May-18 18:30N 44°55' E 012°49'1019.7
2018-May-18 18:00N 45°04' E 012°42'1019.6
2018-May-18 17:30N 45°11' E 012°32'1019.2
2018-May-18 17:00N 45°21' E 012°30'714.3
2018-May-18 16:30N 45°26' E 012°24'2 4.9
2018-May-18 16:00N 45°26' E 012°20'1 2.2
2018-May-18 15:28N 45°26' E 012°19'0 0.0
2018-May-18 14:58N 45°26' E 012°19'0 0.0
2018-May-18 14:30N 45°26' E 012°19'0 0.0
2018-May-18 14:00N 45°26' E 012°19'0 0.0
2018-May-18 13:30N 45°26' E 012°19'0 0.0
2018-May-18 13:00N 45°26' E 012°19'0 0.0
2018-May-18 12:30N 45°26' E 012°19'0 0.0
2018-May-18 11:59N 45°26' E 012°19'0 0.0
2018-May-18 11:29N 45°26' E 012°19'0 0.0
2018-May-18 10:59N 45°26' E 012°19'0 0.0
2018-May-18 10:29N 45°26' E 012°19'0 0.0
2018-May-18 09:58N 45°26' E 012°19'0 0.0
2018-May-18 09:28N 45°26' E 012°19'0 0.0
2018-May-18 08:58N 45°26' E 012°19'0 0.0
2018-May-18 08:28N 45°26' E 012°19'0 0.0
2018-May-18 07:58N 45°26' E 012°19'0 0.0
2018-May-18 07:27N 45°26' E 012°19'0 0.0
2018-May-18 07:00N 45°26' E 012°19'0 0.0
2018-May-18 06:30N 45°26' E 012°19'0 0.0
2018-May-18 06:00N 45°26' E 012°19'1 2.4
2018-May-18 05:30N 45°26' E 012°20'2 4.7
2018-May-18 05:00N 45°26' E 012°23'5 9.2
2018-May-18 04:30N 45°24' E 012°29'715.3
2018-May-18 04:00N 45°17' E 012°33'917.8
2018-May-18 03:30N 45°11' E 012°43'918.0
2018-May-18 02:59N 45°06' E 012°53'918.2
2018-May-18 02:30N 45°02' E 013°04'918.6
2018-May-18 02:00N 44°58' E 013°16'917.8
2018-May-18 01:30N 44°52' E 013°26'918.1
2018-May-18 01:00N 44°44' E 013°33'918.2
2018-May-18 00:30N 44°37' E 013°40'918.2
2018-May-18 00:00N 44°29' E 013°47'918.2
2018-May-17 23:30N 44°21' E 013°54'  
Track history (hours):
 
Tides and Currents Weather Stations Pressure Air Temp Water Temp Dewpoint Dewpoint Depression Visibility Wind Speed Wind Dir Waves Ship Positions

MSC Lirica

Operator: Mediterranean Shipping Company

Last reported at 2018-May-26 00:20 UTC. Time now 2018-May-26 00:40 UTC.
Position N 43°29' E 014°22'.

Length 275 m; draft 6.8 m.

Type: Ship. MMSI: 356042000.

Date/timePositionNaut miles runAvg speedWind from/ knotsBaromVisibWave heightAir tempDewpointWater temp
2018-May-26 00:20N 43°29' E 014°22'820.3
2018-May-25 23:57N 43°35' E 014°15'1020.4
2018-May-25 23:27N 43°42' E 014°05'1220.5
2018-May-25 22:51N 43°51' E 013°54'2220.5
2018-May-25 21:47N 44°04' E 013°29'720.5
2018-May-25 21:28N 44°08' E 013°22'919.9
2018-May-25 21:00N 44°14' E 013°13'1020.5
2018-May-25 20:30N 44°24' E 013°08'1020.8
2018-May-25 20:01N 44°33' E 013°03'1020.1
2018-May-25 19:30N 44°43' E 012°58'1020.1
2018-May-25 18:59N 44°52' E 012°52'1020.0
2018-May-25 18:31N 45°01' E 012°46'1019.5
2018-May-25 18:00N 45°09' E 012°37'918.7
2018-May-25 17:30N 45°17' E 012°30'817.3
2018-May-25 17:00N 45°25' E 012°27'4 7.3
2018-May-25 16:30N 45°25' E 012°22'2 4.6
2018-May-25 16:01N 45°26' E 012°18'0 0.4
2018-May-25 15:29N 45°26' E 012°19'0 0.0
2018-May-25 14:59N 45°26' E 012°19'0 0.0
2018-May-25 14:29N 45°26' E 012°19'0 0.0
2018-May-25 13:58N 45°26' E 012°19'0 0.0
2018-May-25 13:28N 45°26' E 012°19'0 0.0
2018-May-25 12:58N 45°26' E 012°19'0 0.0
2018-May-25 12:28N 45°26' E 012°19'0 0.0
2018-May-25 12:00N 45°26' E 012°19'0 0.0
2018-May-25 11:30N 45°26' E 012°19'0 0.0
2018-May-25 11:00N 45°26' E 012°19'0 0.0
2018-May-25 10:30N 45°26' E 012°19'0 0.0
2018-May-25 10:00N 45°26' E 012°19'0 0.0
2018-May-25 09:29N 45°26' E 012°19'0 0.0
2018-May-25 08:59N 45°26' E 012°19'0 0.0
2018-May-25 08:29N 45°26' E 012°19'0 0.0
2018-May-25 07:59N 45°26' E 012°19'0 0.0
2018-May-25 07:29N 45°26' E 012°19'0 0.0
2018-May-25 06:58N 45°26' E 012°19'0 0.0
2018-May-25 06:28N 45°26' E 012°19'0 0.0
2018-May-25 05:58N 45°26' E 012°19'0 0.8
2018-May-25 05:30N 45°26' E 012°19'2 5.0
2018-May-25 05:00N 45°25' E 012°22'3 6.7
2018-May-25 04:31N 45°25' E 012°27'611.4
2018-May-25 04:00N 45°20' E 012°31'715.0
2018-May-25 03:30N 45°14' E 012°38'917.8
2018-May-25 03:00N 45°09' E 012°48'917.8
2018-May-25 02:30N 45°04' E 012°59'918.4
2018-May-25 01:59N 44°60' E 013°10'918.3
2018-May-25 01:29N 44°55' E 013°22'918.3
2018-May-25 01:00N 44°48' E 013°29'918.7
2018-May-25 00:30N 44°40' E 013°36'918.2
2018-May-25 00:00N 44°32' E 013°43'918.1
2018-May-24 23:30N 44°25' E 013°51'2618.3
2018-May-24 22:05N 44°03' E 014°11'218.8
2018-May-24 22:00N 44°02' E 014°12'918.8
2018-May-24 21:30N 43°54' E 014°19'  
2018-May-21 20:32N 37°05' E 024°58'114.5
2018-May-21 20:30N 37°06' E 024°58'714.6
2018-May-21 20:00N 37°12' E 025°01'914.6
2018-May-21 19:24N 37°20' E 025°06'614.3
2018-May-21 19:00N 37°25' E 025°09'713.5
2018-May-21 18:30N 37°27' E 025°18'2 2.1
2018-May-21 17:45N 37°27' E 025°19'0 0.0
2018-May-21 17:24N 37°27' E 025°19'0 0.0
2018-May-21 16:48N 37°27' E 025°19'0 0.0
2018-May-21 11:31N 37°27' E 025°19'0 0.0
2018-May-21 11:28N 37°27' E 025°19'0 0.0
2018-May-21 06:41N 37°27' E 025°19'0 0.0
2018-May-21 06:28N 37°27' E 025°19'0 0.0
2018-May-21 05:55N 37°27' E 025°19'0 0.0
2018-May-21 05:25N 37°27' E 025°19'0 0.0
2018-May-21 04:46N 37°27' E 025°19'0 0.0
2018-May-21 04:30N 37°27' E 025°19'0 0.6
2018-May-21 04:00N 37°28' E 025°19'1 1.7
2018-May-21 03:27N 37°28' E 025°18'613.8
2018-May-21 02:59N 37°26' E 025°10'1017.1
2018-May-21 02:25N 37°19' E 025°02'717.3
2018-May-21 02:00N 37°15' E 024°55'  
2018-May-18 20:17N 44°23' E 013°07'620.3
2018-May-18 20:00N 44°28' E 013°04'1020.0
2018-May-18 19:30N 44°37' E 013°00'1020.0
2018-May-18 19:00N 44°46' E 012°55'1020.0
2018-May-18 18:30N 44°55' E 012°49'1019.7
2018-May-18 18:00N 45°04' E 012°42'1019.6
2018-May-18 17:30N 45°11' E 012°32'1019.2
2018-May-18 17:00N 45°21' E 012°30'714.3
2018-May-18 16:30N 45°26' E 012°24'2 4.9
2018-May-18 16:00N 45°26' E 012°20'1 2.2
2018-May-18 15:28N 45°26' E 012°19'0 0.0
2018-May-18 14:58N 45°26' E 012°19'0 0.0
2018-May-18 14:30N 45°26' E 012°19'0 0.0
2018-May-18 14:00N 45°26' E 012°19'0 0.0
2018-May-18 13:30N 45°26' E 012°19'0 0.0
2018-May-18 13:00N 45°26' E 012°19'0 0.0
2018-May-18 12:30N 45°26' E 012°19'0 0.0
2018-May-18 11:59N 45°26' E 012°19'0 0.0
2018-May-18 11:29N 45°26' E 012°19'0 0.0
2018-May-18 10:59N 45°26' E 012°19'0 0.0
2018-May-18 10:29N 45°26' E 012°19'0 0.0
2018-May-18 09:58N 45°26' E 012°19'0 0.0
2018-May-18 09:28N 45°26' E 012°19'0 0.0
2018-May-18 08:58N 45°26' E 012°19'0 0.0
2018-May-18 08:28N 45°26' E 012°19'0 0.0
2018-May-18 07:58N 45°26' E 012°19'0 0.0
2018-May-18 07:27N 45°26' E 012°19'0 0.0
2018-May-18 07:00N 45°26' E 012°19'0 0.0
2018-May-18 06:30N 45°26' E 012°19'0 0.0
2018-May-18 06:00N 45°26' E 012°19'1 2.4
2018-May-18 05:30N 45°26' E 012°20'2 4.7
2018-May-18 05:00N 45°26' E 012°23'5 9.2
2018-May-18 04:30N 45°24' E 012°29'715.3
2018-May-18 04:00N 45°17' E 012°33'917.8
2018-May-18 03:30N 45°11' E 012°43'918.0
2018-May-18 02:59N 45°06' E 012°53'918.2
2018-May-18 02:30N 45°02' E 013°04'918.6
2018-May-18 02:00N 44°58' E 013°16'917.8
2018-May-18 01:30N 44°52' E 013°26'918.1
2018-May-18 01:00N 44°44' E 013°33'918.2
2018-May-18 00:30N 44°37' E 013°40'918.2
2018-May-18 00:00N 44°29' E 013°47'918.2
2018-May-17 23:30N 44°21' E 013°54'  

Dump ship's entire track history